Aberdeen, SD

7:32 PM CDT on July 24, 2014 (GMT -0500)
Oakes (K2D5) Elev 1335 ft | 46.17 °N, 98.08 °W | Change Station

Current weather conditions updated 50 days ago

Thunderstorm
Thunderstorm
82 °F
Feels Like 82 °F
N
15
Wind Variable Wind from SSE
Gusts 23 mph

Today
High -- | Low -- °F
--% Chance of Precip.
Yesterday
High -- | Low -- °F
Precip. -- in
6:09 AM 9:11 PM
Waning Crescent, 3% visible
Pressure 29.91 in
Visibility 10.0 miles
Clouds Few 4900 ft
Dew Point 66 °F
Humidity 59%
Rainfall 0.00 in
Snow Depth Not available.
UV 9 out of 12
Pollen 7.40 out of 12
Air Quality Not available.
Flu Activity Not available.
METAR K2D5 041655Z AUTO 14004G14KT 10SM FEW049 23/13 A2991 RMK AO2

More Conditions Fewer Conditions

Pressure 29.91 in
Visibility 10.0 miles
Clouds Few 4900 ft
Dew Point 66 °F
Humidity 59%
Rainfall 0.00 in
Snow Depth Not available.
UV 9 out of 12
Pollen 7.40 out of 12
Air Quality Not available.
Flu Activity Not available.
METAR K2D5 041655Z AUTO 14004G14KT 10SM FEW049 23/13 A2991 RMK AO2

More Conditions Fewer Conditions

10-Day Weather Forecast

Almanac

Astronomy

Jul. 24, 2014 Rise Set
Actual Time 6:09 AM CDT 9:11 PM CDT
Civil Twilight 5:33 AM CDT 9:46 PM CDT
Nautical Twilight 4:48 AM CDT 10:31 PM CDT
Astronomical Twilight 3:53 AM CDT 11:25 PM CDT
Moon 4:19 AM CDT (7/24) 7:25 PM CDT (7/24)
Length of Visible Light 16h 12m
Length of Day
15h 02m
Tomorrow will be 2m 9s shorter.
Waning Crescent, 3% of the Moon is Illuminated
Today
Waning Crescent
Jul 26
New
Aug 3
First Quarter
Aug 10
Full
Aug 17
Last Quarter

Today's Extremes

State Highs State Lows

Community

WunderPhotos

Upload Photos

1,737,169 photos uploaded!

Nearby

Snow Depth

Station Depth Elevation
Blind Park 0 in 6890 ft

Earthquake Activity

City Distance Mag. Time & Date
No recent earthquake activity has been reported nearby.
Minimum magnitude displayed is 2.5.

Coastal Water Temperatures

Place Temperature
No Stations Reporting

Nearby Weather Stations

Station Location Temp. Heat Index Dew Point Humidity Wind Precip. Elev Updated Type
Simmons, Aberdeen, SD 80.2 °F 82 °F 66 °F 62% ESE  at  5.3 mph - / hr 1312 ft 7:18 PM CDT Normal
Willow Creek Lake, Frederick, SD 77.4 °F 79 °F 66 °F 67% SSE  at  8.0 mph 0.00 in / hr 1411 ft 7:22 PM CDT Normal
Groton, SD 77.7 °F 80 °F 65 °F 65% South  at  14.0 mph 0.00 in / hr 1295 ft 7:24 PM CDT Normal

Show More Stations Show Fewer Stations